createdAt,value
2023-04-20T00:00:17.769Z,96122.69
2023-04-20T00:02:45.941Z,96112.00
2023-04-20T00:05:13.584Z,96120.31
2023-04-20T00:07:42.903Z,96096.94
2023-04-20T00:10:11.188Z,96118.91
2023-04-20T00:12:38.690Z,96103.28
2023-04-20T00:15:07.512Z,96098.53
2023-04-20T00:17:35.109Z,96054.94
2023-04-20T00:20:03.783Z,96088.81
2023-04-20T00:22:31.265Z,96088.03
2023-04-20T00:25:00.193Z,96086.25
2023-04-20T00:27:27.656Z,96074.75
2023-04-20T00:29:55.085Z,96091.38
2023-04-20T00:32:22.589Z,96073.38
2023-04-20T00:34:50.211Z,96064.66
2023-04-20T00:37:17.655Z,96064.66
2023-04-20T00:39:45.188Z,96067.84
2023-04-20T00:42:13.925Z,96054.75
2023-04-20T00:44:41.339Z,96053.56
2023-04-20T00:47:08.774Z,96040.69
2023-04-20T00:49:36.255Z,96052.97
2023-04-20T00:52:03.899Z,96045.25
2023-04-20T00:54:32.868Z,96051.00
2023-04-20T00:57:01.200Z,96034.56
2023-04-20T00:59:30.003Z,96031.16
2023-04-20T01:01:58.233Z,96024.03
2023-04-20T01:04:27.429Z,96028.41
2023-04-20T01:06:55.343Z,96029.38
2023-04-20T01:09:22.932Z,96022.28
2023-04-20T01:11:50.570Z,96020.25
2023-04-20T01:14:18.184Z,96010.16
2023-04-20T01:16:47.629Z,96018.47
2023-04-20T01:19:15.320Z,96009.78
2023-04-20T01:21:43.162Z,95998.50
2023-04-20T01:24:12.000Z,96008.78
2023-04-20T01:26:39.622Z,95997.31
2023-04-20T01:29:07.172Z,95990.53
2023-04-20T01:31:34.785Z,95986.41
2023-04-20T01:34:02.328Z,95975.91
2023-04-20T01:36:29.880Z,95963.16
2023-04-20T01:38:57.513Z,95962.81
2023-04-20T01:41:26.958Z,95959.44
2023-04-20T01:43:54.538Z,95956.84
2023-04-20T01:46:22.160Z,95958.63
2023-04-20T01:48:49.706Z,95972.84
2023-04-20T01:51:17.223Z,95972.03
2023-04-20T01:53:44.727Z,95967.66
2023-04-20T01:56:12.251Z,95970.38
2023-04-20T01:58:41.172Z,95952.41
2023-04-20T02:01:08.691Z,95959.91
2023-04-20T02:03:36.286Z,95945.41
2023-04-20T02:06:03.992Z,95940.50
2023-04-20T02:08:31.473Z,95944.59
2023-04-20T02:10:59.002Z,95953.72
2023-04-20T02:13:26.882Z,95951.16
2023-04-20T02:15:56.930Z,95913.19
2023-04-20T02:18:24.545Z,95948.84
2023-04-20T02:20:52.392Z,95952.03
2023-04-20T02:23:19.916Z,95940.41
2023-04-20T02:25:47.415Z,95932.91
2023-04-20T02:28:14.933Z,95933.72
2023-04-20T02:30:42.515Z,95915.09
2023-04-20T02:33:11.480Z,95918.91
2023-04-20T02:35:39.062Z,95928.78
2023-04-20T02:38:06.713Z,95910.44
2023-04-20T02:40:34.683Z,95919.13
2023-04-20T02:43:02.202Z,95913.22
2023-04-20T02:45:30.719Z,95921.13
2023-04-20T02:47:58.304Z,95913.19
2023-04-20T02:50:27.521Z,95914.38
2023-04-20T02:52:55.001Z,95903.28
2023-04-20T02:55:22.656Z,95905.25
2023-04-20T02:57:50.213Z,95902.84
2023-04-20T03:00:18.594Z,95906.59
2023-04-20T03:02:46.799Z,95894.88
2023-04-20T03:05:14.573Z,95882.78
2023-04-20T03:07:43.612Z,95886.53
2023-04-20T03:10:11.963Z,95843.06
2023-04-20T03:12:39.495Z,95874.06
2023-04-20T03:15:07.972Z,95869.13
2023-04-20T03:17:35.959Z,95854.50
2023-04-20T03:20:04.623Z,95863.00
2023-04-20T03:22:32.148Z,95863.34
2023-04-20T03:25:01.149Z,95857.41
2023-04-20T03:27:28.626Z,95852.41
2023-04-20T03:29:56.105Z,95840.06
2023-04-20T03:32:23.671Z,95829.22
2023-04-20T03:34:51.804Z,95847.78
2023-04-20T03:37:19.282Z,95824.44
2023-04-20T03:39:46.895Z,95844.41
2023-04-20T03:42:15.843Z,95846.59
2023-04-20T03:44:43.372Z,95857.16
2023-04-20T03:47:11.306Z,95859.56
2023-04-20T03:49:38.807Z,95850.66
2023-04-20T03:52:07.113Z,95862.81
2023-04-20T03:54:34.673Z,95851.19
2023-04-20T03:57:02.530Z,95868.44
2023-04-20T03:59:31.407Z,95856.00
2023-04-20T04:01:59.660Z,95856.97
2023-04-20T04:04:27.369Z,95864.72
2023-04-20T04:06:55.118Z,95872.84
2023-04-20T04:09:22.687Z,95863.13
2023-04-20T04:11:50.203Z,95863.13
2023-04-20T04:14:17.687Z,95847.94
2023-04-20T04:16:46.576Z,95866.31
2023-04-20T04:19:14.040Z,95844.78
2023-04-20T04:21:42.476Z,95857.44
2023-04-20T04:24:10.364Z,95847.53
2023-04-20T04:26:37.913Z,95847.31
2023-04-20T04:29:06.910Z,95851.50
2023-04-20T04:31:34.957Z,95851.09
2023-04-20T04:34:04.624Z,95844.56
2023-04-20T04:36:32.160Z,95850.13
2023-04-20T04:39:00.025Z,95851.69
2023-04-20T04:41:27.627Z,95848.13
2023-04-20T04:43:55.242Z,95795.91
2023-04-20T04:46:25.510Z,95843.16
2023-04-20T04:48:53.351Z,95822.38
2023-04-20T04:51:22.343Z,95805.38
2023-04-20T04:53:50.132Z,95824.97
2023-04-20T04:56:18.406Z,95839.22
2023-04-20T04:58:46.243Z,95834.66
2023-04-20T05:01:14.854Z,95832.09
2023-04-20T05:03:53.253Z,95833.09
2023-04-20T05:06:22.426Z,95801.03
2023-04-20T05:08:49.920Z,95818.66
2023-04-20T05:11:17.409Z,95814.09
2023-04-20T05:13:44.907Z,95815.69
2023-04-20T05:16:12.413Z,95825.56
2023-04-20T05:18:39.936Z,95825.97
2023-04-20T05:21:07.403Z,95821.03
2023-04-20T05:23:36.226Z,95833.47
2023-04-20T05:26:03.896Z,95837.81
2023-04-20T05:28:31.392Z,95819.41
2023-04-20T05:30:59.222Z,95824.97
2023-04-20T05:33:26.944Z,95825.94
2023-04-20T05:35:57.493Z,95796.50
2023-04-20T05:38:25.140Z,95828.91
2023-04-20T05:40:53.961Z,95824.97
2023-04-20T05:43:21.477Z,95821.03
2023-04-20T05:45:49.872Z,95821.25
2023-04-20T05:48:17.421Z,95822.22
2023-04-20T05:50:44.911Z,95812.13
2023-04-20T05:53:12.361Z,95823.78
2023-04-20T05:55:39.818Z,95825.00
2023-04-20T05:58:08.653Z,95808.19
2023-04-20T06:00:36.497Z,95821.25
2023-04-20T06:03:04.809Z,95830.53
2023-04-20T06:05:32.530Z,95814.31
2023-04-20T06:08:00.003Z,95812.69
2023-04-20T06:10:32.102Z,95805.38
2023-04-20T06:12:59.608Z,95819.44
2023-04-20T06:15:28.501Z,95809.75
2023-04-20T06:17:56.062Z,95809.19
2023-04-20T06:20:23.905Z,95807.41
2023-04-20T06:22:51.531Z,95787.81
2023-04-20T06:25:18.985Z,95802.44
2023-04-20T06:27:46.547Z,95804.00
2023-04-20T06:30:15.033Z,95804.22
2023-04-20T06:32:46.371Z,95777.34
2023-04-20T06:35:13.957Z,95785.63
2023-04-20T06:37:41.394Z,95801.81
2023-04-20T06:40:09.624Z,95787.78
2023-04-20T06:42:37.398Z,95780.09
2023-04-20T06:45:05.942Z,95788.97
2023-04-20T06:47:33.824Z,95784.38
2023-04-20T06:50:07.180Z,95784.81
2023-04-20T06:52:34.678Z,95774.13
2023-04-20T06:55:02.161Z,95778.66
2023-04-20T06:57:29.657Z,95779.22
2023-04-20T06:59:58.778Z,95767.63
2023-04-20T07:02:26.408Z,95780.66
2023-04-20T07:04:54.084Z,95778.06
2023-04-20T07:07:23.064Z,95780.09
2023-04-20T07:09:50.534Z,95781.69
2023-04-20T07:12:17.990Z,95781.47
2023-04-20T07:14:45.411Z,95772.78
2023-04-20T07:17:12.907Z,95771.94
2023-04-20T07:19:40.396Z,95774.13
2023-04-20T07:22:07.867Z,95772.34
2023-04-20T07:24:36.642Z,95780.66
2023-04-20T07:27:04.186Z,95777.28
2023-04-20T07:29:33.872Z,95777.09
2023-04-20T07:32:01.640Z,95777.72
2023-04-20T07:34:29.140Z,95767.25
2023-04-20T07:36:56.588Z,95747.88
2023-04-20T07:39:25.386Z,95775.56
2023-04-20T07:41:54.514Z,95780.09
2023-04-20T07:44:21.932Z,95775.75
2023-04-20T07:46:49.869Z,95769.03
2023-04-20T07:49:17.586Z,95763.31
2023-04-20T07:51:45.404Z,95774.97
2023-04-20T07:54:12.909Z,95782.88
2023-04-20T07:56:40.365Z,95772.41
2023-04-20T07:59:09.245Z,95761.28
2023-04-20T08:01:37.033Z,95765.63
2023-04-20T08:04:05.186Z,95777.69
2023-04-20T08:06:33.225Z,95773.50
2023-04-20T08:09:00.729Z,95766.22
2023-04-20T08:11:28.197Z,95765.19
2023-04-20T08:13:57.254Z,95768.94
2023-04-20T08:16:27.356Z,95765.34
2023-04-20T08:18:54.950Z,95756.56
2023-04-20T08:21:25.436Z,95757.22
2023-04-20T08:23:53.666Z,95762.13
2023-04-20T08:26:25.176Z,95763.97
2023-04-20T08:28:52.673Z,95759.38
2023-04-20T08:31:20.804Z,95757.56
2023-04-20T08:33:49.674Z,95761.59
2023-04-20T08:36:17.704Z,95768.09
2023-04-20T08:38:45.229Z,95734.59
2023-04-20T08:41:13.437Z,95744.13
2023-04-20T08:43:41.410Z,95747.22
2023-04-20T08:46:09.135Z,95757.47
2023-04-20T08:48:38.173Z,95727.09
2023-04-20T08:51:07.348Z,95748.69
2023-04-20T08:53:34.991Z,95732.75
2023-04-20T08:56:02.559Z,95749.50
2023-04-20T08:58:32.077Z,95725.06
2023-04-20T09:01:00.664Z,95723.59
2023-04-20T09:03:36.068Z,95748.94
2023-04-20T09:06:03.917Z,95753.38
2023-04-20T09:08:40.016Z,95731.72
2023-04-20T09:11:07.901Z,95736.28
2023-04-20T09:13:35.544Z,95740.97
2023-04-20T09:16:12.790Z,95751.22
2023-04-20T09:18:40.364Z,95745.69
2023-04-20T09:21:11.020Z,95750.97
2023-04-20T09:23:39.861Z,95756.06
2023-04-20T09:26:07.588Z,95744.78
2023-04-20T09:28:39.568Z,95747.94
2023-04-20T09:31:07.151Z,95750.88
2023-04-20T09:33:36.574Z,95747.56
2023-04-20T09:36:06.251Z,95738.41
2023-04-20T09:38:34.934Z,95722.44
2023-04-20T09:41:04.549Z,95734.59
2023-04-20T09:43:32.625Z,95737.22
2023-04-20T09:46:04.148Z,95734.78
2023-04-20T09:48:32.255Z,95741.81
2023-04-20T09:51:03.400Z,95745.34
2023-04-20T09:53:32.061Z,95733.38
2023-04-20T09:56:02.151Z,95726.06
2023-04-20T09:58:33.440Z,95722.75
2023-04-20T10:01:02.380Z,95706.38
2023-04-20T10:03:30.196Z,95730.47
2023-04-20T10:05:57.781Z,95723.38
2023-04-20T10:08:25.303Z,95709.72
2023-04-20T10:10:52.799Z,95711.84
2023-04-20T10:13:21.754Z,95724.88
2023-04-20T10:15:50.705Z,95727.41
2023-04-20T10:18:20.724Z,95729.13
2023-04-20T10:20:48.719Z,95709.59
2023-04-20T10:23:18.586Z,95696.75
2023-04-20T10:25:56.291Z,95720.19
2023-04-20T10:28:23.832Z,95721.59
2023-04-20T10:30:56.179Z,95710.66
2023-04-20T10:33:23.811Z,95681.06
2023-04-20T10:35:54.589Z,95698.16
2023-04-20T10:38:37.624Z,95707.09
2023-04-20T10:41:08.429Z,95700.94
2023-04-20T10:43:38.938Z,95709.78
2023-04-20T10:46:16.354Z,95689.34
2023-04-20T10:48:57.850Z,95695.63
2023-04-20T10:51:26.326Z,95690.09
2023-04-20T10:54:01.183Z,95688.44
2023-04-20T10:56:28.936Z,95656.75
2023-04-20T10:59:07.709Z,95707.16
2023-04-20T11:01:37.157Z,95679.47
2023-04-20T11:04:09.711Z,95672.78
2023-04-20T11:06:39.368Z,95703.91
2023-04-20T11:09:18.423Z,95703.56
2023-04-20T11:11:46.169Z,95698.16
2023-04-20T11:14:14.200Z,95675.75
2023-04-20T11:16:53.191Z,95668.50
2023-04-20T11:19:26.029Z,95674.38
2023-04-20T11:21:53.686Z,95699.06
2023-04-20T11:24:22.821Z,95702.03
2023-04-20T11:26:52.627Z,95673.91
2023-04-20T11:29:31.840Z,95663.84
2023-04-20T11:32:04.075Z,95680.88
2023-04-20T11:34:33.455Z,95680.72
2023-04-20T11:37:05.523Z,95685.56
2023-04-20T11:39:36.264Z,95670.84
2023-04-20T11:42:07.789Z,95647.78
2023-04-20T11:44:36.587Z,95664.34
2023-04-20T11:47:08.377Z,95636.53
2023-04-20T11:49:36.194Z,95661.53
2023-04-20T11:52:06.284Z,95668.63
2023-04-20T11:54:35.017Z,95684.00
2023-04-20T11:57:02.560Z,95682.88
2023-04-20T11:59:31.361Z,95683.66
2023-04-20T12:02:01.256Z,95670.97
2023-04-20T12:04:30.981Z,95680.09
2023-04-20T12:06:59.382Z,95664.22
2023-04-20T12:09:27.082Z,95675.91
2023-04-20T12:11:54.822Z,95666.56
2023-04-20T12:14:22.317Z,95683.31
2023-04-20T12:16:49.843Z,95631.88
2023-04-20T12:19:17.658Z,95654.78
2023-04-20T12:21:47.861Z,95663.84
2023-04-20T12:24:15.299Z,95656.72
2023-04-20T12:26:42.810Z,95657.25
2023-04-20T12:29:10.458Z,95660.09
2023-04-20T12:31:37.937Z,95664.16
2023-04-20T12:34:05.576Z,95651.06
2023-04-20T12:36:34.962Z,95649.53
2023-04-20T12:39:04.445Z,95649.78
2023-04-20T12:41:32.942Z,95651.91
2023-04-20T12:44:02.039Z,95656.25
2023-04-20T12:46:31.239Z,95642.53
2023-04-20T12:48:58.720Z,95632.41
2023-04-20T12:51:27.082Z,95649.09
2023-04-20T12:53:54.546Z,95645.97
2023-04-20T12:56:23.369Z,95645.16
2023-04-20T12:58:50.840Z,95643.25
2023-04-20T13:01:18.500Z,95638.72
2023-04-20T13:03:46.316Z,95636.91
2023-04-20T13:06:14.526Z,95633.72
2023-04-20T13:08:42.202Z,95640.81
2023-04-20T13:11:11.926Z,95640.38
2023-04-20T13:13:40.755Z,95648.69
2023-04-20T13:16:08.440Z,95650.75
2023-04-20T13:18:36.149Z,95646.56
2023-04-20T13:21:03.713Z,95637.22
2023-04-20T13:23:31.248Z,95646.41
2023-04-20T13:26:01.293Z,95620.78
2023-04-20T13:28:29.016Z,95625.84
2023-04-20T13:30:58.285Z,95647.50
2023-04-20T13:33:26.194Z,95640.19
2023-04-20T13:35:53.772Z,95643.69
2023-04-20T13:38:21.440Z,95641.56
2023-04-20T13:40:49.132Z,95631.50
2023-04-20T13:43:17.671Z,95633.22
2023-04-20T13:45:46.394Z,95638.00
2023-04-20T13:48:18.416Z,95634.97
2023-04-20T13:50:47.282Z,95632.00
2023-04-20T13:53:14.753Z,95624.31
2023-04-20T13:55:42.193Z,95627.69
2023-04-20T13:58:09.646Z,95618.16
2023-04-20T14:00:37.308Z,95622.94
2023-04-20T14:03:06.085Z,95625.69
2023-04-20T14:05:35.008Z,95621.75
2023-04-20T14:08:03.584Z,95596.22
2023-04-20T14:10:31.026Z,95616.38
2023-04-20T14:12:58.514Z,95609.22
2023-04-20T14:15:26.074Z,95611.78
2023-04-20T14:17:53.664Z,95589.81
2023-04-20T14:20:21.162Z,95600.16
2023-04-20T14:22:49.954Z,95598.38
2023-04-20T14:25:17.561Z,95591.38
2023-04-20T14:27:46.107Z,95608.25
2023-04-20T14:30:14.687Z,95596.50
2023-04-20T14:32:42.265Z,95600.97
2023-04-20T14:35:10.215Z,95591.03
2023-04-20T14:37:37.624Z,95562.63
2023-04-20T14:40:08.163Z,95595.06
2023-04-20T14:42:36.341Z,95594.50
2023-04-20T14:45:04.139Z,95598.19
2023-04-20T14:47:31.607Z,95597.22
2023-04-20T14:49:59.085Z,95587.63
2023-04-20T14:52:26.713Z,95581.16
2023-04-20T14:54:54.186Z,95589.16
2023-04-20T14:57:22.985Z,95585.31
2023-04-20T14:59:50.456Z,95592.03
2023-04-20T15:02:18.362Z,95588.13
2023-04-20T15:04:46.401Z,95593.50
2023-04-20T15:07:14.058Z,95593.00
2023-04-20T15:09:41.540Z,95580.75
2023-04-20T15:12:09.190Z,95597.97
2023-04-20T15:14:37.990Z,95599.88
2023-04-20T15:17:05.471Z,95604.28
2023-04-20T15:19:33.089Z,95593.22
2023-04-20T15:22:00.548Z,95598.41
2023-04-20T15:24:28.029Z,95603.72
2023-04-20T15:26:55.476Z,95596.91
2023-04-20T15:29:22.907Z,95590.88
2023-04-20T15:31:51.854Z,95598.47
2023-04-20T15:34:19.594Z,95590.97
2023-04-20T15:36:47.271Z,95603.84
2023-04-20T15:39:14.780Z,95624.47
2023-04-20T15:41:42.325Z,95634.84
2023-04-20T15:44:09.794Z,95617.00
2023-04-20T15:46:37.778Z,95634.63
2023-04-20T15:49:06.683Z,95623.06
2023-04-20T15:51:34.129Z,95633.31
2023-04-20T15:54:01.666Z,95650.72
2023-04-20T15:56:29.172Z,95659.69
2023-04-20T15:58:56.588Z,95649.47
2023-04-20T16:01:24.222Z,95628.09
2023-04-20T16:03:51.920Z,95620.03
2023-04-20T16:06:21.070Z,95619.91
2023-04-20T16:08:53.050Z,95611.78
2023-04-20T16:11:21.734Z,95605.03
2023-04-20T16:13:49.523Z,95599.84
2023-04-20T16:16:17.194Z,95602.63
2023-04-20T16:18:44.730Z,95609.16
2023-04-20T16:21:12.195Z,95592.97
2023-04-20T16:23:41.082Z,95609.00
2023-04-20T16:26:08.558Z,95603.19
2023-04-20T16:28:37.284Z,95587.56
2023-04-20T16:31:05.214Z,95596.41
2023-04-20T16:33:33.200Z,95593.06
2023-04-20T16:36:01.729Z,95606.28
2023-04-20T16:38:29.220Z,95579.38
2023-04-20T16:40:58.214Z,95613.66
2023-04-20T16:43:25.745Z,95590.34
2023-04-20T16:45:53.286Z,95617.59
2023-04-20T16:48:20.928Z,95586.00
2023-04-20T16:50:48.555Z,95578.97
2023-04-20T16:53:16.004Z,95608.59
2023-04-20T16:55:43.515Z,95604.97
2023-04-20T16:58:12.615Z,95607.84
2023-04-20T17:00:40.244Z,95622.03
2023-04-20T17:03:10.365Z,95644.88
2023-04-20T17:05:41.119Z,95649.56
2023-04-20T17:08:09.619Z,95661.38
2023-04-20T17:10:38.324Z,95676.31
2023-04-20T17:13:06.119Z,95687.13
2023-04-20T17:15:35.128Z,95670.78
2023-04-20T17:18:02.705Z,95680.13
2023-04-20T17:20:30.501Z,95683.94
2023-04-20T17:22:57.950Z,95666.78
2023-04-20T17:25:25.430Z,95671.75
2023-04-20T17:27:52.972Z,95665.50
2023-04-20T17:30:21.025Z,95641.78
2023-04-20T17:32:49.980Z,95672.94
2023-04-20T17:35:17.531Z,95673.75
2023-04-20T17:37:45.050Z,95654.56
2023-04-20T17:40:13.031Z,95672.94
2023-04-20T17:42:40.593Z,95672.28
2023-04-20T17:45:08.819Z,95674.19
2023-04-20T17:47:36.305Z,95672.28
2023-04-20T17:50:06.019Z,95676.44
2023-04-20T17:52:33.641Z,95644.19
2023-04-20T17:55:01.871Z,95670.47
2023-04-20T17:57:29.674Z,95669.47
2023-04-20T17:59:57.497Z,95660.56
2023-04-20T18:02:25.625Z,95646.75
2023-04-20T18:04:55.175Z,95652.69
2023-04-20T18:07:24.180Z,95656.09
2023-04-20T18:09:53.529Z,95660.41
2023-04-20T18:12:21.096Z,95671.88
2023-04-20T18:14:48.769Z,95640.47
2023-04-20T18:17:16.255Z,95661.78
2023-04-20T18:19:43.826Z,95660.75
2023-04-20T18:22:11.358Z,95678.47
2023-04-20T18:24:40.333Z,95648.91
2023-04-20T18:27:08.178Z,95671.59
2023-04-20T18:29:36.459Z,95651.69
2023-04-20T18:32:04.175Z,95647.66
2023-04-20T18:34:32.028Z,95659.06
2023-04-20T18:36:59.798Z,95664.09
2023-04-20T18:39:27.337Z,95661.59
2023-04-20T18:41:56.338Z,95639.53
2023-04-20T18:44:24.096Z,95664.53
2023-04-20T18:46:51.644Z,95642.47
2023-04-20T18:49:19.132Z,95656.41
2023-04-20T18:51:47.149Z,95650.25
2023-04-20T18:54:15.294Z,95648.91
2023-04-20T18:56:42.906Z,95629.06
2023-04-20T18:59:12.353Z,95656.53
2023-04-20T19:01:40.593Z,95657.88
2023-04-20T19:04:09.202Z,95617.25
2023-04-20T19:06:36.953Z,95625.91
2023-04-20T19:09:07.278Z,95646.63
2023-04-20T19:11:36.144Z,95646.41
2023-04-20T19:14:04.423Z,95660.94
2023-04-20T19:16:34.395Z,95660.94
2023-04-20T19:19:02.921Z,95642.25
2023-04-20T19:21:31.908Z,95642.16
2023-04-20T19:23:59.612Z,95633.28
2023-04-20T19:26:27.414Z,95649.03
2023-04-20T19:28:59.887Z,95646.78
2023-04-20T19:31:32.225Z,95597.50
2023-04-20T19:34:01.324Z,95650.75
2023-04-20T19:36:29.053Z,95637.81
2023-04-20T19:38:56.784Z,95630.38
2023-04-20T19:41:25.872Z,95636.56
2023-04-20T19:43:53.558Z,95626.66
2023-04-20T19:46:21.413Z,95631.84
2023-04-20T19:48:49.063Z,95647.28
2023-04-20T19:51:19.200Z,95652.44
2023-04-20T19:53:46.928Z,95645.47
2023-04-20T19:56:15.110Z,95655.03
2023-04-20T19:58:43.379Z,95603.75
2023-04-20T20:01:11.362Z,95640.53
2023-04-20T20:03:39.269Z,95643.00
2023-04-20T20:06:07.671Z,95645.91
2023-04-20T20:08:37.595Z,95640.28
2023-04-20T20:11:05.559Z,95650.19
2023-04-20T20:13:33.199Z,95615.53
2023-04-20T20:16:01.759Z,95629.16
2023-04-20T20:18:29.529Z,95635.00
2023-04-20T20:20:57.037Z,95636.13
2023-04-20T20:23:24.683Z,95617.47
2023-04-20T20:25:53.735Z,95647.28
2023-04-20T20:28:21.251Z,95636.44
2023-04-20T20:30:48.931Z,95643.56
2023-04-20T20:33:16.576Z,95634.53
2023-04-20T20:35:44.257Z,95625.53
2023-04-20T20:38:12.193Z,95627.00
2023-04-20T20:40:40.697Z,95631.84
2023-04-20T20:43:10.601Z,95648.47
2023-04-20T20:45:38.423Z,95632.47
2023-04-20T20:48:06.255Z,95624.84
2023-04-20T20:50:34.175Z,95633.28
2023-04-20T20:53:01.792Z,95637.88
2023-04-20T20:55:29.378Z,95639.31
2023-04-20T20:57:56.995Z,95619.97
2023-04-20T21:00:26.393Z,95630.31
2023-04-20T21:02:54.414Z,95615.94
2023-04-20T21:05:22.940Z,95623.56
2023-04-20T21:07:50.878Z,95606.47
2023-04-20T21:10:18.602Z,95624.91
2023-04-20T21:12:47.136Z,95608.81
2023-04-20T21:15:15.628Z,95613.91
2023-04-20T21:17:44.803Z,95609.06
2023-04-20T21:20:13.430Z,95621.28
2023-04-20T21:22:41.502Z,95623.66
2023-04-20T21:25:09.835Z,95595.88
2023-04-20T21:27:38.139Z,95597.03
2023-04-20T21:30:07.147Z,95599.38
2023-04-20T21:32:34.973Z,95591.63
2023-04-20T21:35:04.297Z,95613.34
2023-04-20T21:37:32.277Z,95590.06
2023-04-20T21:40:00.784Z,95589.91
2023-04-20T21:42:28.372Z,95594.00
2023-04-20T21:44:56.085Z,95592.00
2023-04-20T21:47:23.759Z,95600.63
2023-04-20T21:49:51.458Z,95567.13
2023-04-20T21:52:20.370Z,95597.50
2023-04-20T21:54:47.844Z,95589.41
2023-04-20T21:57:15.306Z,95586.38
2023-04-20T21:59:42.791Z,95603.34
2023-04-20T22:02:10.443Z,95611.00
2023-04-20T22:04:38.133Z,95584.59
2023-04-20T22:07:06.681Z,95588.00
2023-04-20T22:09:36.082Z,95590.91
2023-04-20T22:12:05.290Z,95552.00
2023-04-20T22:14:33.134Z,95553.78
2023-04-20T22:17:01.775Z,95576.97
2023-04-20T22:19:29.303Z,95592.47
2023-04-20T22:21:56.741Z,95588.13
2023-04-20T22:24:24.438Z,95586.53
2023-04-20T22:26:57.493Z,95592.72
2023-04-20T22:29:25.051Z,95586.53
2023-04-20T22:31:52.483Z,95570.69
2023-04-20T22:34:19.965Z,95581.25
2023-04-20T22:36:47.656Z,95565.75
2023-04-20T22:39:15.492Z,95560.78
2023-04-20T22:41:42.982Z,95540.38
2023-04-20T22:44:11.790Z,95559.47
2023-04-20T22:46:39.313Z,95550.81
2023-04-20T22:49:06.903Z,95564.63
2023-04-20T22:51:34.435Z,95548.22
2023-04-20T22:54:02.507Z,95553.53
2023-04-20T22:56:30.356Z,95550.72
2023-04-20T22:58:57.852Z,95555.88
2023-04-20T23:01:26.963Z,95551.28
2023-04-20T23:03:55.107Z,95552.16
2023-04-20T23:06:23.361Z,95518.47
2023-04-20T23:08:51.376Z,95534.53
2023-04-20T23:11:20.657Z,95520.84
2023-04-20T23:13:48.138Z,95514.09
2023-04-20T23:16:15.723Z,95520.03
2023-04-20T23:18:44.590Z,95535.91
2023-04-20T23:21:12.684Z,95528.94
2023-04-20T23:23:40.129Z,95532.06
2023-04-20T23:26:07.614Z,95526.13
2023-04-20T23:28:35.048Z,95522.97
2023-04-20T23:31:02.517Z,95517.03
2023-04-20T23:33:30.015Z,95524.44
2023-04-20T23:36:00.546Z,95520.03
2023-04-20T23:38:28.008Z,95512.31
2023-04-20T23:40:55.465Z,95525.66
2023-04-20T23:43:22.940Z,95512.19
2023-04-20T23:45:50.464Z,95503.53
2023-04-20T23:48:18.105Z,95512.22
2023-04-20T23:50:45.836Z,95511.84
2023-04-20T23:53:14.703Z,95507.69
2023-04-20T23:55:42.215Z,95503.34
2023-04-20T23:58:09.829Z,95503.66
